Time;durP1;ratioP1;P1;durP2;ratioP2;P2;SDS_P1;SDS_P2;PMS_P1;PMS_P2;Temp;Humidity;BMP_temperature;BMP_pressure;BME280_temperature;BME280_humidity;BME280_pressure;Samples;Min_cycle;Max_cycle;Signal;HPM_P1;HPM_P2
2023/08/18 00:01:21;;;;;;;2.30;1.00;;;16.70;1.00;;;;;;5001131;28;20041;-80
2023/08/18 00:03:47;;;;;;;2.40;0.90;;;16.70;1.00;;;;;;4967880;28;20049;-80
2023/08/18 00:06:13;;;;;;;2.05;0.95;;;16.70;1.00;;;;;;4975197;28;20230;-80
2023/08/18 00:08:39;;;;;;;1.10;0.90;;;16.70;1.00;;;;;;4985230;28;20038;-81
2023/08/18 00:11:05;;;;;;;1.63;0.80;;;16.70;1.00;;;;;;4967799;28;20034;-80
2023/08/18 00:13:30;;;;;;;5.35;1.17;;;16.70;1.00;;;;;;4984594;28;20096;-80
2023/08/18 00:15:56;;;;;;;3.53;0.90;;;16.70;1.00;;;;;;4998814;28;20038;-80
2023/08/18 00:18:22;;;;;;;1.70;1.02;;;16.60;1.00;;;;;;4969200;28;20104;-81
2023/08/18 00:20:49;;;;;;;3.13;1.00;;;16.70;1.00;;;;;;4985540;28;20062;-80
2023/08/18 00:23:14;;;;;;;2.45;1.10;;;16.70;1.00;;;;;;4984034;28;20038;-80
2023/08/18 00:25:40;;;;;;;2.20;1.20;;;16.60;1.00;;;;;;4969318;28;20107;-80
2023/08/18 00:28:06;;;;;;;2.03;1.15;;;16.70;1.00;;;;;;4984543;28;20073;-80
2023/08/18 00:30:31;;;;;;;3.13;1.13;;;16.60;1.00;;;;;;4970289;28;20112;-79
2023/08/18 00:32:57;;;;;;;2.20;1.00;;;16.60;1.00;;;;;;5004479;28;20038;-80
2023/08/18 00:35:23;;;;;;;1.20;1.05;;;16.60;1.00;;;;;;4986587;28;20038;-80
2023/08/18 00:37:48;;;;;;;2.00;1.13;;;16.60;1.00;;;;;;4988130;28;20046;-80
2023/08/18 00:40:14;;;;;;;2.25;1.00;;;16.60;1.00;;;;;;5002926;28;20061;-81
2023/08/18 00:42:40;;;;;;;2.30;1.10;;;16.60;1.00;;;;;;4987831;28;20045;-81
2023/08/18 00:45:06;;;;;;;3.05;1.00;;;16.60;1.00;;;;;;4985935;28;20045;-80
2023/08/18 00:47:32;;;;;;;1.48;1.05;;;16.60;1.00;;;;;;5002803;28;20496;-80
2023/08/18 00:49:59;;;;;;;2.80;1.10;;;16.60;1.00;;;;;;4986597;28;20042;-80
2023/08/18 00:52:25;;;;;;;2.08;1.10;;;16.60;1.00;;;;;;4977589;28;20034;-81
2023/08/18 00:54:52;;;;;;;1.35;1.02;;;16.60;1.00;;;;;;4997028;28;20033;-80
2023/08/18 00:57:19;;;;;;;4.05;1.20;;;16.50;16.70;;;;;;4985961;28;20046;-80
2023/08/18 00:59:45;;;;;;;1.95;1.10;;;16.50;31.50;;;;;;4981170;28;20049;-79
2023/08/18 01:02:12;;;;;;;2.60;1.05;;;16.50;43.90;;;;;;4987713;28;20125;-79
2023/08/18 01:04:38;;;;;;;3.03;1.48;;;16.50;49.90;;;;;;4983836;28;20659;-80
2023/08/18 01:07:04;;;;;;;3.38;1.52;;;16.50;66.00;;;;;;4989222;28;20042;-80
2023/08/18 01:09:31;;;;;;;2.05;1.30;;;16.60;79.50;;;;;;4991197;28;20452;-80
2023/08/18 01:12:34;;;;;;;2.88;1.20;;;16.50;80.60;;;;;;4980213;28;20046;-80
2023/08/18 01:15:18;;;;;;;5.47;1.73;;;16.60;81.60;;;;;;5001796;28;20607;-80
2023/08/18 01:17:51;;;;;;;4.03;1.70;;;16.50;92.00;;;;;;5006332;28;20114;-80
2023/08/18 01:20:18;;;;;;;3.83;2.00;;;16.50;99.90;;;;;;4985963;28;20038;-80
2023/08/18 01:22:48;;;;;;;3.90;1.65;;;16.50;99.90;;;;;;4989677;28;20660;-80
2023/08/18 01:25:14;;;;;;;3.45;1.40;;;16.50;99.90;;;;;;4999243;28;20138;-80
2023/08/18 01:27:39;;;;;;;2.63;1.77;;;16.50;99.90;;;;;;4998573;28;20809;-80
2023/08/18 01:30:06;;;;;;;2.83;1.70;;;16.60;99.90;;;;;;4970446;28;20054;-80
2023/08/18 01:32:39;;;;;;;2.80;1.38;;;16.50;99.90;;;;;;4987571;28;20041;-80
2023/08/18 01:35:07;;;;;;;2.65;1.48;;;16.50;99.90;;;;;;4986333;28;20563;-80
2023/08/18 01:37:34;;;;;;;3.35;1.88;;;16.50;99.90;;;;;;4997241;28;20038;-80
2023/08/18 01:40:00;;;;;;;2.72;1.83;;;16.50;99.90;;;;;;4977964;28;20034;-80
2023/08/18 01:42:27;;;;;;;4.20;1.55;;;16.50;99.90;;;;;;4983973;28;20110;-80
2023/08/18 01:44:59;;;;;;;2.45;1.60;;;16.50;99.90;;;;;;4993216;28;20610;-80
2023/08/18 01:47:24;;;;;;;5.40;1.30;;;16.50;99.90;;;;;;4982697;28;20046;-80
2023/08/18 01:49:50;;;;;;;2.22;1.70;;;16.50;99.90;;;;;;4989720;28;20096;-80
2023/08/18 01:52:16;;;;;;;2.33;1.58;;;16.50;99.90;;;;;;4985787;28;20046;-80
2023/08/18 01:54:41;;;;;;;2.70;1.65;;;16.50;99.90;;;;;;4996733;28;20053;-79
2023/08/18 01:57:08;;;;;;;2.03;1.23;;;16.50;99.90;;;;;;4985518;28;20069;-80
2023/08/18 01:59:34;;;;;;;2.03;1.40;;;16.50;99.90;;;;;;4995616;28;20057;-80
2023/08/18 02:01:59;;;;;;;1.65;1.15;;;16.60;99.90;;;;;;4986075;28;20046;-80
2023/08/18 02:04:25;;;;;;;2.28;1.50;;;16.60;99.90;;;;;;4975409;28;20100;-80
2023/08/18 02:06:51;;;;;;;3.35;1.52;;;16.60;99.90;;;;;;4985978;28;20045;-80
2023/08/18 02:09:16;;;;;;;3.45;1.73;;;16.60;99.90;;;;;;4986628;28;20084;-80
2023/08/18 02:11:42;;;;;;;4.28;1.70;;;16.60;99.90;;;;;;4970832;28;20542;-80
2023/08/18 02:14:07;;;;;;;2.70;1.60;;;16.60;99.90;;;;;;5002831;28;20030;-80
2023/08/18 02:16:33;;;;;;;2.28;1.65;;;16.60;99.90;;;;;;4985973;28;20038;-80
2023/08/18 02:18:59;;;;;;;3.75;1.75;;;16.60;99.90;;;;;;4998533;28;20461;-80
2023/08/18 02:21:24;;;;;;;3.33;1.33;;;16.60;99.90;;;;;;4983319;28;20047;-80
2023/08/18 02:23:50;;;;;;;2.47;1.58;;;16.60;99.90;;;;;;4998457;28;20097;-79
2023/08/18 02:26:15;;;;;;;14.77;2.05;;;16.60;99.90;;;;;;4974541;28;20045;-80
2023/08/18 02:28:41;;;;;;;1.92;1.45;;;16.60;99.90;;;;;;4986017;28;20168;-80
2023/08/18 02:31:07;;;;;;;3.55;1.60;;;16.60;99.90;;;;;;4985993;28;20073;-80
2023/08/18 02:33:34;;;;;;;3.95;1.85;;;16.60;99.90;;;;;;4986010;28;20465;-79
2023/08/18 02:36:01;;;;;;;2.20;1.33;;;16.60;99.90;;;;;;4980743;28;20034;-80
2023/08/18 02:38:27;;;;;;;5.63;1.85;;;16.60;99.90;;;;;;5000300;28;20049;-80
2023/08/18 02:40:53;;;;;;;3.03;1.77;;;16.60;99.90;;;;;;4997253;28;20646;-79
2023/08/18 02:43:21;;;;;;;3.42;1.70;;;16.50;99.90;;;;;;4988537;28;20038;-80
2023/08/18 02:45:46;;;;;;;3.35;2.20;;;16.50;99.90;;;;;;4985555;28;20516;-80
2023/08/18 02:48:12;;;;;;;4.25;2.13;;;16.60;99.90;;;;;;4991332;28;20058;-79
2023/08/18 02:50:39;;;;;;;4.95;2.05;;;16.50;99.90;;;;;;4979015;28;20066;-80
2023/08/18 02:53:05;;;;;;;2.75;2.00;;;16.50;99.90;;;;;;4986249;28;20053;-80
2023/08/18 02:55:32;;;;;;;6.75;2.03;;;16.50;99.90;;;;;;4981740;28;20042;-80
2023/08/18 02:57:58;;;;;;;4.22;2.05;;;16.50;99.90;;;;;;4971004;28;20030;-80
2023/08/18 03:00:24;;;;;;;5.30;2.20;;;16.50;99.90;;;;;;4999881;28;20604;-80
2023/08/18 03:02:50;;;;;;;4.68;2.05;;;16.50;99.90;;;;;;4984953;28;20044;-80
2023/08/18 03:05:16;;;;;;;3.85;2.10;;;16.50;99.90;;;;;;4961263;28;20042;-80
2023/08/18 03:07:42;;;;;;;4.68;2.10;;;16.50;99.90;;;;;;5002385;28;20097;-80
2023/08/18 03:10:07;;;;;;;4.35;2.28;;;16.50;99.90;;;;;;4988711;28;20038;-80
2023/08/18 03:12:33;;;;;;;2.80;2.17;;;16.50;99.90;;;;;;4981706;28;20125;-80
2023/08/18 03:14:59;;;;;;;2.30;1.75;;;16.50;99.90;;;;;;4977027;28;20417;-80
2023/08/18 03:17:24;;;;;;;3.67;2.38;;;16.50;99.90;;;;;;4995869;28;20105;-80
2023/08/18 03:19:50;;;;;;;3.20;2.00;;;16.50;99.90;;;;;;4969824;28;20042;-79
2023/08/18 03:22:15;;;;;;;3.78;1.80;;;16.50;99.90;;;;;;5000265;28;20507;-80
2023/08/18 03:24:41;;;;;;;3.78;2.03;;;16.50;99.90;;;;;;4988656;28;20045;-80
2023/08/18 03:27:07;;;;;;;4.82;2.20;;;16.50;99.90;;;;;;5006069;28;20038;-80
2023/08/18 03:29:32;;;;;;;5.40;2.72;;;16.50;99.90;;;;;;4977923;28;20071;-80
2023/08/18 03:31:58;;;;;;;5.30;2.50;;;16.60;99.90;;;;;;4983387;28;20038;-80
2023/08/18 03:34:24;;;;;;;4.15;2.22;;;16.50;99.90;;;;;;4984159;28;20049;-80
2023/08/18 03:36:49;;;;;;;5.35;2.35;;;16.50;99.90;;;;;;4981915;28;20657;-80
2023/08/18 03:39:15;;;;;;;4.45;2.35;;;16.60;99.90;;;;;;4988590;28;20045;-80
2023/08/18 03:41:41;;;;;;;5.03;3.17;;;16.50;99.90;;;;;;4975843;28;20034;-80
2023/08/18 03:44:06;;;;;;;4.22;2.72;;;16.60;99.90;;;;;;4980920;28;20034;-80
2023/08/18 03:46:33;;;;;;;3.95;2.30;;;16.60;99.90;;;;;;4969736;28;20130;-80
2023/08/18 03:48:59;;;;;;;3.15;2.00;;;16.50;99.90;;;;;;4983918;28;20045;-80
2023/08/18 03:51:25;;;;;;;3.55;2.10;;;16.60;99.90;;;;;;4988844;28;20039;-80
2023/08/18 03:53:51;;;;;;;5.78;2.50;;;16.50;99.90;;;;;;4987307;28;20042;-80
2023/08/18 03:56:17;;;;;;;5.07;2.72;;;16.60;99.90;;;;;;4985154;28;20129;-80
2023/08/18 03:58:43;;;;;;;5.30;2.45;;;16.40;99.90;;;;;;5000512;28;20072;-80
2023/08/18 04:01:09;;;;;;;4.25;2.72;;;16.60;99.90;;;;;;4984350;28;20038;-80
2023/08/18 04:03:35;;;;;;;4.65;2.90;;;16.60;99.90;;;;;;4996571;28;20035;-80
2023/08/18 04:06:03;;;;;;;4.15;2.28;;;16.50;99.90;;;;;;5002421;28;20042;-80
2023/08/18 04:08:30;;;;;;;4.13;2.20;;;16.60;99.90;;;;;;4986798;28;20042;-80
2023/08/18 04:10:56;;;;;;;4.85;2.60;;;16.50;99.90;;;;;;5004584;28;20050;-80
2023/08/18 04:13:22;;;;;;;3.63;2.50;;;16.50;99.90;;;;;;4984705;28;20055;-80
2023/08/18 04:15:47;;;;;;;9.55;3.05;;;16.60;99.90;;;;;;5000969;28;20508;-80
2023/08/18 04:18:13;;;;;;;4.65;2.95;;;16.60;99.90;;;;;;4992848;28;20038;-80
2023/08/18 04:20:38;;;;;;;4.15;2.58;;;16.50;99.90;;;;;;4988284;28;20121;-80
2023/08/18 04:23:04;;;;;;;4.25;2.47;;;16.60;99.90;;;;;;4991816;28;20041;-80
2023/08/18 04:25:30;;;;;;;5.13;3.08;;;16.60;99.90;;;;;;5005908;28;20038;-80
2023/08/18 04:27:56;;;;;;;4.78;3.00;;;16.60;99.90;;;;;;4989597;28;20130;-80
2023/08/18 04:30:22;;;;;;;5.28;3.38;;;16.60;99.90;;;;;;4983649;28;20054;-80
2023/08/18 04:32:48;;;;;;;6.43;2.90;;;16.60;99.90;;;;;;4984984;28;20565;-80
2023/08/18 04:35:13;;;;;;;4.47;3.03;;;16.60;99.90;;;;;;4989149;28;20501;-80
2023/08/18 04:37:39;;;;;;;6.70;3.83;;;16.60;99.90;;;;;;4994998;28;20056;-80
2023/08/18 04:40:06;;;;;;;6.85;3.20;;;16.60;99.90;;;;;;5002439;28;20034;-80
2023/08/18 04:42:31;;;;;;;9.00;4.00;;;16.50;99.90;;;;;;4982970;28;20050;-80
2023/08/18 04:44:57;;;;;;;6.05;3.50;;;16.60;99.90;;;;;;4984193;28;20446;-80
2023/08/18 04:47:23;;;;;;;5.65;3.75;;;16.50;99.90;;;;;;4984249;28;20057;-80
2023/08/18 04:49:48;;;;;;;8.93;3.35;;;16.50;99.90;;;;;;5001758;28;20042;-80
2023/08/18 04:52:15;;;;;;;8.45;3.30;;;16.50;99.90;;;;;;4970783;28;20043;-80
2023/08/18 04:54:40;;;;;;;7.60;3.92;;;16.60;99.90;;;;;;4986612;28;20572;-80
2023/08/18 04:57:07;;;;;;;6.32;3.67;;;16.60;99.90;;;;;;5000438;28;20120;-80
2023/08/18 04:59:33;;;;;;;6.80;3.88;;;16.60;99.90;;;;;;4999501;28;20073;-80
2023/08/18 05:01:59;;;;;;;8.07;4.03;;;16.60;99.90;;;;;;4967598;28;20107;-79
2023/08/18 05:04:24;;;;;;;7.03;4.05;;;16.60;99.90;;;;;;4993374;28;20073;-78
2023/08/18 05:06:50;;;;;;;7.97;4.07;;;16.60;99.90;;;;;;5001215;28;20034;-79
2023/08/18 05:09:16;;;;;;;6.65;3.97;;;16.60;99.90;;;;;;4984396;28;20046;-78
2023/08/18 05:11:41;;;;;;;7.13;4.30;;;16.50;99.90;;;;;;4980616;28;20642;-79
2023/08/18 05:14:07;;;;;;;7.00;4.70;;;16.50;99.90;;;;;;4977989;28;20632;-79
2023/08/18 05:16:33;;;;;;;9.68;4.80;;;16.50;99.90;;;;;;4987879;28;20077;-80
2023/08/18 05:18:59;;;;;;;9.20;4.28;;;16.50;1.00;;;;;;4993136;28;20066;-80
2023/08/18 05:21:24;;;;;;;9.48;4.63;;;16.40;1.00;;;;;;4984819;28;20034;-80
2023/08/18 05:23:50;;;;;;;7.50;4.55;;;16.40;1.00;;;;;;5001316;28;20038;-80
2023/08/18 05:26:16;;;;;;;8.85;4.57;;;16.40;1.00;;;;;;4985763;28;20133;-80
2023/08/18 05:28:42;;;;;;;11.55;5.25;;;16.40;1.00;;;;;;4984278;28;20081;-79
2023/08/18 05:31:08;;;;;;;8.55;4.90;;;16.40;1.00;;;;;;4985791;28;20073;-80
2023/08/18 05:33:34;;;;;;;8.95;5.63;;;16.40;1.00;;;;;;4986525;28;20038;-79
2023/08/18 05:36:00;;;;;;;8.00;4.97;;;16.40;1.00;;;;;;4981120;28;20049;-80
2023/08/18 05:38:26;;;;;;;11.43;5.30;;;16.40;1.00;;;;;;4990456;28;20048;-79
2023/08/18 05:40:53;;;;;;;9.57;4.93;;;16.50;1.00;;;;;;4961670;28;20035;-79
2023/08/18 05:43:19;;;;;;;9.70;5.00;;;16.50;1.00;;;;;;4969513;28;20037;-79
2023/08/18 05:45:46;;;;;;;10.20;4.72;;;16.50;1.00;;;;;;4987041;28;20042;-80
2023/08/18 05:48:13;;;;;;;8.80;4.80;;;16.50;1.00;;;;;;4986982;28;20556;-80
2023/08/18 05:50:39;;;;;;;9.57;5.20;;;16.50;1.00;;;;;;4987472;28;20178;-80
2023/08/18 05:53:05;;;;;;;10.45;5.05;;;16.60;1.00;;;;;;4985793;28;20047;-81
2023/08/18 05:55:31;;;;;;;10.00;4.90;;;16.60;1.00;;;;;;4976038;28;20053;-82
2023/08/18 05:58:01;;;;;;;8.93;4.95;;;16.60;1.00;;;;;;4980824;28;20042;-82
2023/08/18 06:00:28;;;;;;;8.35;5.30;;;16.60;1.00;;;;;;4979979;28;20932;-82
2023/08/18 06:02:54;;;;;;;8.43;5.15;;;16.50;1.00;;;;;;4984779;28;20048;-82
2023/08/18 06:05:21;;;;;;;10.45;5.47;;;16.50;1.00;;;;;;4967564;28;20404;-82
2023/08/18 06:07:49;;;;;;;11.75;5.70;;;16.60;1.00;;;;;;4977649;28;20038;-82
2023/08/18 06:10:15;;;;;;;12.80;5.53;;;16.60;1.00;;;;;;4976952;28;20036;-83
2023/08/18 06:12:41;;;;;;;8.85;5.25;;;16.60;1.00;;;;;;4977881;28;20103;-82
2023/08/18 06:15:08;;;;;;;7.45;5.00;;;16.50;1.00;;;;;;4964306;28;20034;-82
2023/08/18 06:17:34;;;;;;;8.20;5.03;;;16.50;1.00;;;;;;4980640;28;20042;-82
2023/08/18 06:20:00;;;;;;;8.13;5.68;;;16.60;1.00;;;;;;4973000;28;20755;-82
2023/08/18 06:22:26;;;;;;;8.63;4.95;;;16.60;1.00;;;;;;4979346;28;20048;-82
2023/08/18 06:24:51;;;;;;;8.90;5.25;;;16.70;1.00;;;;;;4978307;28;20045;-82
2023/08/18 06:27:17;;;;;;;10.52;4.65;;;16.70;1.00;;;;;;4983405;28;20042;-82
2023/08/18 06:29:43;;;;;;;10.05;5.38;;;16.70;1.00;;;;;;4978148;28;20104;-83
2023/08/18 06:32:09;;;;;;;10.80;5.35;;;16.80;1.00;;;;;;4974220;28;20042;-82
2023/08/18 06:34:34;;;;;;;13.80;4.93;;;16.80;1.00;;;;;;4973874;28;20068;-82
2023/08/18 06:37:01;;;;;;;8.15;5.15;;;16.90;1.00;;;;;;4978313;28;20129;-81
2023/08/18 06:39:27;;;;;;;12.63;4.82;;;17.00;1.00;;;;;;4979931;28;20511;-80
2023/08/18 06:41:52;;;;;;;10.05;4.65;;;17.00;1.00;;;;;;4990228;28;20034;-82
2023/08/18 06:44:20;;;;;;;9.23;4.93;;;17.00;1.00;;;;;;4979598;28;20153;-82
2023/08/18 06:46:46;;;;;;;9.77;5.57;;;17.10;1.00;;;;;;4980470;28;20152;-83
2023/08/18 06:49:11;;;;;;;12.40;7.68;;;17.20;1.00;;;;;;4977172;28;20076;-82
2023/08/18 06:51:37;;;;;;;12.70;6.50;;;17.30;1.00;;;;;;4970601;28;20137;-83
2023/08/18 06:54:03;;;;;;;13.07;4.65;;;17.30;1.00;;;;;;4980392;28;20304;-83
2023/08/18 06:56:28;;;;;;;10.73;5.03;;;17.40;1.00;;;;;;4980602;28;20507;-83
2023/08/18 06:58:54;;;;;;;7.72;4.32;;;17.50;1.00;;;;;;4977897;28;20054;-83
2023/08/18 07:01:20;;;;;;;10.55;4.90;;;17.60;1.00;;;;;;4976857;28;20827;-83
2023/08/18 07:03:47;;;;;;;10.35;4.88;;;17.70;1.00;;;;;;4982506;28;20552;-81
2023/08/18 07:06:13;;;;;;;15.82;5.22;;;17.80;1.00;;;;;;4960824;28;20053;-78
2023/08/18 07:08:39;;;;;;;8.07;4.70;;;17.90;1.00;;;;;;4976851;28;20069;-76
2023/08/18 07:11:05;;;;;;;10.52;4.60;;;18.00;1.00;;;;;;4988541;28;20057;-78
2023/08/18 07:13:30;;;;;;;10.95;4.88;;;18.10;1.00;;;;;;4979824;28;20538;-78
2023/08/18 07:15:56;;;;;;;10.32;4.47;;;18.20;1.00;;;;;;4981365;28;20043;-78
2023/08/18 07:18:22;;;;;;;9.93;4.30;;;18.30;1.00;;;;;;4983131;28;20129;-78
2023/08/18 07:20:47;;;;;;;11.98;4.70;;;18.40;1.00;;;;;;4967768;28;20038;-77
2023/08/18 07:23:14;;;;;;;12.18;4.63;;;18.40;1.00;;;;;;4995543;28;20042;-78
2023/08/18 07:25:41;;;;;;;12.55;5.25;;;18.40;1.00;;;;;;4965853;28;20156;-78
2023/08/18 07:28:07;;;;;;;8.68;4.00;;;18.40;1.00;;;;;;4985597;28;20409;-77
2023/08/18 07:30:32;;;;;;;10.63;5.00;;;18.40;1.00;;;;;;4983847;28;20051;-78
2023/08/18 07:32:58;;;;;;;8.13;4.70;;;18.30;1.00;;;;;;4980951;28;20034;-77
2023/08/18 07:35:24;;;;;;;10.23;4.50;;;18.30;1.00;;;;;;4967480;28;20833;-77
2023/08/18 07:37:54;;;;;;;14.68;4.78;;;18.30;1.00;;;;;;4983181;28;20034;-78
2023/08/18 07:40:20;;;;;;;9.57;5.05;;;18.30;1.00;;;;;;4981040;28;20030;-78
2023/08/18 07:42:45;;;;;;;10.52;4.80;;;18.30;1.00;;;;;;4983827;28;20092;-78
2023/08/18 07:45:11;;;;;;;10.35;4.82;;;18.30;1.00;;;;;;4979075;28;20062;-78
2023/08/18 07:47:38;;;;;;;14.23;5.57;;;18.40;1.00;;;;;;4983494;28;20046;-78
2023/08/18 07:50:06;;;;;;;14.48;5.88;;;18.40;1.00;;;;;;4983908;28;20121;-78
2023/08/18 07:52:33;;;;;;;16.02;5.90;;;18.40;1.00;;;;;;4981120;28;20056;-78
2023/08/18 07:54:59;;;;;;;13.43;4.93;;;18.40;1.00;;;;;;4973038;28;20043;-78
2023/08/18 07:57:24;;;;;;;10.48;5.30;;;18.50;1.00;;;;;;4981833;28;20160;-78
2023/08/18 07:59:50;;;;;;;14.98;4.80;;;18.70;1.00;;;;;;4983184;28;20042;-77
2023/08/18 08:02:16;;;;;;;11.45;5.28;;;18.80;1.00;;;;;;4979572;28;20046;-78
2023/08/18 08:04:42;;;;;;;11.80;5.40;;;18.90;1.00;;;;;;4966614;28;20048;-78
2023/08/18 08:07:07;;;;;;;8.95;4.38;;;19.00;1.00;;;;;;4962577;28;20049;-75
2023/08/18 08:09:33;;;;;;;8.85;4.82;;;19.10;1.00;;;;;;4998594;28;20035;-75
2023/08/18 08:11:58;;;;;;;9.45;4.80;;;19.30;99.90;;;;;;4982717;28;20153;-76
2023/08/18 08:14:24;;;;;;;10.30;4.30;;;19.30;99.90;;;;;;4993012;28;20452;-76
2023/08/18 08:16:50;;;;;;;9.27;4.10;;;19.40;99.90;;;;;;4981405;28;20592;-75
2023/08/18 08:19:17;;;;;;;9.43;4.53;;;19.50;99.90;;;;;;4977305;28;20065;-76
2023/08/18 08:21:42;;;;;;;8.75;4.53;;;19.50;99.90;;;;;;4980455;28;20038;-76
2023/08/18 08:24:08;;;;;;;8.68;4.38;;;19.60;99.90;;;;;;4983401;28;20045;-76
2023/08/18 08:26:34;;;;;;;6.68;3.72;;;19.70;99.90;;;;;;4999394;28;20077;-76
2023/08/18 08:29:00;;;;;;;7.35;3.72;;;19.80;99.90;;;;;;4981626;28;20112;-76
2023/08/18 08:31:26;;;;;;;9.65;4.20;;;19.90;99.90;;;;;;4983952;28;20046;-76
2023/08/18 08:33:51;;;;;;;8.77;4.80;;;19.90;99.90;;;;;;4965832;28;20039;-76
2023/08/18 08:36:17;;;;;;;8.98;4.10;;;20.00;99.90;;;;;;4979401;28;20107;-77
2023/08/18 08:38:43;;;;;;;9.07;4.60;;;20.00;99.90;;;;;;4975624;28;22971;-76
2023/08/18 08:41:09;;;;;;;8.98;4.40;;;20.10;99.90;;;;;;4964680;28;20709;-76
2023/08/18 08:43:35;;;;;;;6.78;3.55;;;20.20;99.90;;;;;;4981509;28;20074;-76
2023/08/18 08:46:01;;;;;;;10.13;4.28;;;20.10;99.90;;;;;;4967851;28;20062;-77
2023/08/18 08:48:37;;;;;;;8.98;4.38;;;20.20;99.90;;;;;;4999790;28;20449;-76
2023/08/18 08:51:04;;;;;;;9.95;4.05;;;20.20;99.90;;;;;;4979882;28;20042;-77
2023/08/18 08:53:35;;;;;;;12.43;3.97;;;20.30;99.90;;;;;;4970189;28;20045;-77
2023/08/18 08:56:02;;;;;;;9.23;4.07;;;20.50;75.90;;;;;;4976976;28;20108;-77
2023/08/18 08:58:31;;;;;;;10.82;4.50;;;20.70;15.20;;;;;;4968184;28;20603;-77
2023/08/18 09:01:01;;;;;;;10.52;4.60;;;20.90;1.00;;;;;;5004258;28;20408;-77
2023/08/18 09:03:30;;;;;;;10.40;4.53;;;21.10;1.00;;;;;;4982969;28;20038;-76
2023/08/18 09:05:56;;;;;;;8.77;4.18;;;21.40;1.00;;;;;;4997352;28;20043;-77
2023/08/18 09:08:22;;;;;;;7.22;4.15;;;21.60;1.00;;;;;;4966136;28;20049;-77
2023/08/18 09:10:48;;;;;;;7.15;3.90;;;21.70;99.90;;;;;;4980944;28;20046;-76
2023/08/18 09:13:13;;;;;;;7.90;4.22;;;21.70;99.90;;;;;;5002201;28;20056;-77
2023/08/18 09:15:44;;;;;;;7.72;3.95;;;21.70;99.90;;;;;;4987540;28;20467;-77
2023/08/18 09:18:16;;;;;;;7.60;3.97;;;21.90;99.90;;;;;;4987221;28;20112;-77
2023/08/18 09:20:45;;;;;;;8.95;4.18;;;21.90;99.90;;;;;;4987321;28;20076;-75
2023/08/18 09:23:11;;;;;;;6.05;3.85;;;22.00;99.90;;;;;;5002700;28;20123;-77
2023/08/18 09:25:37;;;;;;;7.95;4.15;;;21.90;99.90;;;;;;4987470;28;20038;-77
2023/08/18 09:28:04;;;;;;;10.07;4.57;;;22.00;99.90;;;;;;4986541;28;20045;-77
2023/08/18 09:30:31;;;;;;;8.52;4.78;;;22.10;99.90;;;;;;5002349;28;20064;-77
2023/08/18 09:33:00;;;;;;;12.95;4.57;;;22.30;99.90;;;;;;4999694;28;20044;-77
2023/08/18 09:35:25;;;;;;;8.32;4.32;;;22.40;99.90;;;;;;5003553;28;20038;-77
2023/08/18 09:37:58;;;;;;;7.78;4.20;;;22.40;99.90;;;;;;4985706;28;20038;-77
2023/08/18 09:40:24;;;;;;;8.13;3.92;;;22.40;99.90;;;;;;4983143;28;20617;-76
2023/08/18 09:42:50;;;;;;;9.02;4.28;;;22.50;99.90;;;;;;4972661;28;20043;-77
2023/08/18 09:45:17;;;;;;;11.20;4.90;;;22.70;99.90;;;;;;4977942;28;20038;-77
2023/08/18 09:47:44;;;;;;;8.05;4.45;;;22.90;99.90;;;;;;5002031;28;20050;-78
2023/08/18 09:50:10;;;;;;;7.68;4.55;;;23.00;99.90;;;;;;4970312;28;20065;-75
2023/08/18 09:52:42;;;;;;;9.63;4.18;;;23.10;99.90;;;;;;4970593;28;20060;-76
2023/08/18 09:55:13;;;;;;;6.15;3.67;;;23.30;99.90;;;;;;4986857;28;20046;-76
2023/08/18 09:58:39;;;;;;;6.35;3.90;;;23.30;99.90;;;;;;4986118;28;20034;-76
2023/08/18 10:01:06;;;;;;;7.03;3.70;;;23.30;99.90;;;;;;4960177;28;20045;-74
2023/08/18 10:03:37;;;;;;;8.07;4.07;;;23.40;99.90;;;;;;4965966;28;20517;-75
2023/08/18 10:06:06;;;;;;;6.90;3.53;;;23.50;99.90;;;;;;4975982;28;20050;-76
2023/08/18 10:08:32;;;;;;;6.65;3.70;;;23.50;99.90;;;;;;4981187;28;20038;-76
2023/08/18 10:10:59;;;;;;;7.82;4.05;;;23.60;99.90;;;;;;4978982;28;20046;-75
2023/08/18 10:13:25;;;;;;;6.03;3.33;;;23.60;99.90;;;;;;4966348;28;20053;-75
2023/08/18 10:15:52;;;;;;;6.45;3.58;;;23.50;99.90;;;;;;4983299;28;20528;-74
2023/08/18 10:18:18;;;;;;;6.60;3.80;;;23.50;99.90;;;;;;4981099;28;20145;-75
2023/08/18 10:20:52;;;;;;;6.28;3.65;;;23.50;99.90;;;;;;4996229;28;20049;-74
2023/08/18 10:23:18;;;;;;;6.82;4.00;;;23.60;99.90;;;;;;4984707;28;20452;-74
2023/08/18 10:25:48;;;;;;;6.97;4.20;;;23.60;99.90;;;;;;4967660;28;20035;-75
2023/08/18 10:28:22;;;;;;;5.68;3.95;;;23.60;99.90;;;;;;4985973;28;20043;-75
2023/08/18 10:31:03;;;;;;;5.95;3.63;;;23.70;99.90;;;;;;4969627;28;20152;-75
2023/08/18 10:33:35;;;;;;;6.22;3.17;;;23.80;99.90;;;;;;4993001;28;20142;-75
2023/08/18 10:36:03;;;;;;;6.28;3.92;;;23.90;99.90;;;;;;4998089;28;20488;-75
2023/08/18 10:38:29;;;;;;;7.18;4.28;;;24.00;99.90;;;;;;4985336;28;20042;-74
2023/08/18 10:40:56;;;;;;;6.43;4.05;;;24.00;99.90;;;;;;4997739;28;20092;-74
2023/08/18 10:43:26;;;;;;;8.10;3.67;;;24.10;99.90;;;;;;4979349;28;20042;-74
2023/08/18 10:45:59;;;;;;;6.40;3.78;;;24.10;99.90;;;;;;4982963;28;20070;-75
2023/08/18 10:48:34;;;;;;;6.13;4.47;;;24.20;99.90;;;;;;4964504;28;20513;-74
2023/08/18 10:51:00;;;;;;;6.30;4.20;;;24.30;99.90;;;;;;4980757;28;20038;-74
2023/08/18 10:53:32;;;;;;;10.40;4.20;;;24.50;99.90;;;;;;4997287;28;20416;-74
2023/08/18 10:55:58;;;;;;;5.18;3.88;;;24.70;86.90;;;;;;4962499;28;20058;-76
2023/08/18 10:58:24;;;;;;;8.75;4.78;;;24.80;64.80;;;;;;4979166;28;20121;-76
2023/08/18 11:00:53;;;;;;;6.63;4.40;;;24.90;48.60;;;;;;4966281;28;20144;-76
2023/08/18 11:03:22;;;;;;;5.45;3.72;;;25.10;27.70;;;;;;4965106;28;20042;-74
2023/08/18 11:05:50;;;;;;;6.63;4.35;;;25.40;14.40;;;;;;4979233;28;20037;-74
2023/08/18 11:08:17;;;;;;;5.97;4.07;;;25.50;5.70;;;;;;4979833;28;20096;-75
2023/08/18 11:10:43;;;;;;;7.68;4.30;;;25.70;1.00;;;;;;4981124;28;20030;-74
2023/08/18 11:13:22;;;;;;;5.78;4.05;;;25.80;1.00;;;;;;4983935;28;20555;-75
2023/08/18 11:15:52;;;;;;;4.80;3.67;;;25.70;1.00;;;;;;4983785;28;20034;-76
2023/08/18 11:18:20;;;;;;;6.25;4.22;;;25.70;1.00;;;;;;4982382;28;20031;-74
2023/08/18 11:20:51;;;;;;;5.32;4.25;;;25.80;1.00;;;;;;4967503;28;20833;-74
2023/08/18 11:23:17;;;;;;;6.43;4.50;;;26.00;1.00;;;;;;4986197;28;20042;-75
2023/08/18 11:25:44;;;;;;;6.20;3.65;;;26.30;1.00;;;;;;4981824;28;20033;-75
2023/08/18 11:28:10;;;;;;;4.88;3.97;;;26.50;1.00;;;;;;4983190;28;20037;-74
2023/08/18 11:30:36;;;;;;;5.88;4.10;;;26.60;1.00;;;;;;4984592;28;20687;-75
2023/08/18 11:33:01;;;;;;;5.28;3.90;;;26.50;1.00;;;;;;4999473;28;20080;-75
2023/08/18 11:35:30;;;;;;;7.35;4.03;;;26.50;1.00;;;;;;4983880;28;20053;-75
2023/08/18 11:37:56;;;;;;;5.97;3.97;;;26.60;1.00;;;;;;4984425;28;20424;-75
2023/08/18 11:40:23;;;;;;;5.88;3.80;;;26.80;1.00;;;;;;4985411;28;20038;-75
2023/08/18 11:42:50;;;;;;;5.85;4.25;;;26.90;1.00;;;;;;4996289;28;20066;-74
2023/08/18 11:45:18;;;;;;;4.95;3.90;;;27.00;1.00;;;;;;4965489;28;20046;-75
2023/08/18 11:47:46;;;;;;;5.43;3.67;;;27.20;1.00;;;;;;4967088;28;20081;-75
2023/08/18 11:50:19;;;;;;;5.40;3.97;;;27.50;1.00;;;;;;4968975;28;20540;-75
2023/08/18 11:52:47;;;;;;;6.22;4.45;;;28.00;1.00;;;;;;4966513;28;20064;-74
2023/08/18 11:55:13;;;;;;;5.97;4.60;;;28.50;1.00;;;;;;4963431;28;20051;-75
2023/08/18 11:57:41;;;;;;;6.88;4.88;;;29.00;1.00;;;;;;4993860;28;20080;-75
2023/08/18 12:00:13;;;;;;;6.78;4.63;;;29.70;1.00;;;;;;4999005;28;20429;-75
2023/08/18 12:02:46;;;;;;;5.63;4.10;;;30.30;1.00;;;;;;4983933;28;20045;-75
2023/08/18 12:05:22;;;;;;;6.55;4.55;;;30.70;1.00;;;;;;4999083;28;20109;-74
2023/08/18 12:07:52;;;;;;;5.28;4.30;;;31.20;1.00;;;;;;4981776;28;20433;-74
2023/08/18 12:10:22;;;;;;;5.45;4.53;;;31.20;1.00;;;;;;4968170;28;20046;-75
2023/08/18 12:12:52;;;;;;;7.90;4.90;;;31.70;1.00;;;;;;4968359;28;20556;-74
2023/08/18 12:15:18;;;;;;;5.90;4.28;;;32.20;1.00;;;;;;5002130;28;20125;-76
2023/08/18 12:17:44;;;;;;;7.22;4.50;;;33.60;1.00;;;;;;4968453;28;20101;-75
2023/08/18 12:20:10;;;;;;;5.97;4.45;;;34.90;1.00;;;;;;4966761;28;20520;-74
2023/08/18 12:22:35;;;;;;;6.07;4.07;;;36.10;1.00;;;;;;4967399;28;20046;-75
2023/08/18 12:25:02;;;;;;;5.05;4.32;;;37.40;1.00;;;;;;4983224;28;20098;-75
2023/08/18 12:27:29;;;;;;;5.22;4.05;;;38.10;1.00;;;;;;4985281;28;20038;-75
2023/08/18 12:29:56;;;;;;;5.88;4.32;;;37.80;1.00;;;;;;4986926;28;20109;-74
2023/08/18 12:32:22;;;;;;;4.65;3.75;;;36.90;1.00;;;;;;4972716;28;20049;-75
2023/08/18 12:34:50;;;;;;;5.63;4.25;;;36.20;1.00;;;;;;4970798;28;20062;-75
2023/08/18 12:37:18;;;;;;;4.38;3.95;;;35.70;1.00;;;;;;4987544;28;20125;-75
2023/08/18 12:39:44;;;;;;;4.47;4.03;;;36.00;1.00;;;;;;4987024;28;20042;-73
2023/08/18 12:42:10;;;;;;;6.18;4.45;;;36.20;1.00;;;;;;4988845;28;20036;-75
2023/08/18 12:44:35;;;;;;;6.03;4.38;;;35.40;1.00;;;;;;4985230;28;20495;-75
2023/08/18 12:47:01;;;;;;;5.85;5.03;;;34.20;1.00;;;;;;4978187;28;20500;-75
2023/08/18 12:49:27;;;;;;;5.05;4.55;;;33.30;1.00;;;;;;5004939;28;20046;-75